Time;durP1;ratioP1;P1;durP2;ratioP2;P2;SDS_P1;SDS_P2;PMS_P1;PMS_P2;Temp;Humidity;BMP_temperature;BMP_pressure;BME280_temperature;BME280_humidity;BME280_pressure;Samples;Min_cycle;Max_cycle;Signal;HPM_P1;HPM_P2
2021/12/26 05:16:53;;;;;;;20.23;14.05;;;6.00;99.90;;;;;;4946438;22;20256;-81
2021/12/26 05:19:20;;;;;;;21.50;13.43;;;6.20;99.90;;;;;;5076240;28;20716;-79
2021/12/26 05:21:47;;;;;;;22.40;13.10;;;6.10;99.90;;;;;;5078346;28;20209;-79
2021/12/26 05:24:13;;;;;;;20.67;12.13;;;6.10;99.90;;;;;;5075833;28;20293;-79
2021/12/26 05:26:40;;;;;;;21.15;12.60;;;5.90;99.90;;;;;;5075865;28;20230;-79
2021/12/26 05:29:07;;;;;;;19.08;12.25;;;6.10;99.90;;;;;;5076235;28;20379;-81
2021/12/26 05:31:34;;;;;;;20.17;11.70;;;5.90;99.90;;;;;;5076176;28;20208;-79
2021/12/26 05:34:02;;;;;;;20.75;12.93;;;6.00;99.90;;;;;;5075576;28;20209;-80
2021/12/26 05:36:29;;;;;;;20.08;12.70;;;6.10;99.90;;;;;;5075891;28;20236;-81
2021/12/26 05:38:57;;;;;;;21.05;12.98;;;6.00;99.90;;;;;;5079226;28;20299;-81
2021/12/26 05:41:23;;;;;;;20.25;12.18;;;6.10;99.90;;;;;;5085276;28;20269;-80
2021/12/26 05:44:01;;;;;;;20.15;12.40;;;6.00;99.90;;;;;;5088238;28;20229;-80
2021/12/26 05:46:28;;;;;;;18.25;12.43;;;6.10;99.90;;;;;;5083172;28;20189;-80
2021/12/26 05:48:55;;;;;;;25.25;13.80;;;6.20;99.90;;;;;;5080453;28;20216;-80
2021/12/26 05:51:23;;;;;;;20.73;13.82;;;6.20;99.90;;;;;;5086127;28;20206;-80
2021/12/26 05:53:50;;;;;;;21.88;12.82;;;6.10;99.90;;;;;;5087191;28;20215;-80
2021/12/26 05:56:16;;;;;;;21.00;12.75;;;6.40;99.90;;;;;;5079570;28;20639;-80
2021/12/26 05:58:43;;;;;;;22.52;13.50;;;6.10;99.90;;;;;;5078537;28;20207;-80
2021/12/26 06:01:10;;;;;;;23.27;12.43;;;6.30;99.90;;;;;;5080365;28;20225;-80
2021/12/26 06:03:37;;;;;;;22.83;14.85;;;6.20;99.90;;;;;;5079053;28;20547;-80
2021/12/26 06:06:05;;;;;;;26.02;15.70;;;6.40;99.90;;;;;;5078320;28;20599;-80
2021/12/26 06:08:33;;;;;;;22.02;12.50;;;6.30;99.90;;;;;;5080193;28;20225;-80
2021/12/26 06:11:00;;;;;;;23.38;14.45;;;6.40;99.90;;;;;;5085874;28;20266;-80
2021/12/26 06:13:27;;;;;;;19.58;12.95;;;6.40;99.90;;;;;;5079092;28;20212;-80
2021/12/26 06:15:55;;;;;;;22.33;13.75;;;6.30;99.90;;;;;;5078390;28;20233;-80
2021/12/26 06:18:22;;;;;;;25.70;14.15;;;6.40;99.90;;;;;;5095307;28;20263;-81
2021/12/26 06:20:48;;;;;;;25.30;15.00;;;6.30;99.90;;;;;;5098481;28;20229;-80
2021/12/26 06:23:15;;;;;;;24.67;14.00;;;6.40;99.90;;;;;;5098748;28;20211;-80
2021/12/26 06:25:44;;;;;;;22.40;12.60;;;6.40;99.90;;;;;;5099103;28;20208;-80
2021/12/26 06:28:10;;;;;;;22.20;14.35;;;6.20;99.90;;;;;;5098553;28;20224;-80
2021/12/26 06:30:38;;;;;;;22.33;13.77;;;6.10;99.90;;;;;;5098362;28;20261;-80
2021/12/26 06:33:05;;;;;;;23.02;14.93;;;6.40;99.90;;;;;;5106161;28;20276;-80
2021/12/26 06:35:31;;;;;;;24.95;15.60;;;6.30;99.90;;;;;;5104969;28;20295;-80
2021/12/26 06:37:58;;;;;;;22.42;14.32;;;6.40;99.90;;;;;;5098853;28;20556;-80
2021/12/26 06:40:25;;;;;;;21.85;13.88;;;6.30;99.90;;;;;;5098155;28;20311;-80
2021/12/26 06:42:53;;;;;;;19.20;12.98;;;6.30;99.90;;;;;;5098825;28;20273;-79
2021/12/26 06:45:20;;;;;;;28.02;14.20;;;6.30;99.90;;;;;;5098768;28;20205;-80
2021/12/26 06:47:51;;;;;;;23.38;14.88;;;6.50;99.90;;;;;;5097757;28;20707;-81
2021/12/26 06:50:19;;;;;;;24.23;13.93;;;6.40;99.90;;;;;;5098472;28;20185;-80
2021/12/26 06:52:46;;;;;;;25.20;14.38;;;6.50;99.90;;;;;;5098836;28;20207;-81
2021/12/26 06:55:13;;;;;;;23.05;14.48;;;6.70;99.90;;;;;;5099270;28;20227;-80
2021/12/26 06:57:41;;;;;;;25.33;14.50;;;6.50;99.90;;;;;;5097883;28;20606;-80
2021/12/26 07:00:13;;;;;;;26.67;14.73;;;6.50;99.90;;;;;;5098174;28;20221;-80
2021/12/26 07:02:39;;;;;;;23.23;13.52;;;6.70;99.90;;;;;;5097828;28;20653;-80
2021/12/26 07:05:07;;;;;;;21.95;14.63;;;6.70;99.90;;;;;;5100178;28;20205;-80
2021/12/26 07:07:34;;;;;;;21.73;12.50;;;6.90;99.90;;;;;;5107817;28;20235;-80
2021/12/26 07:10:00;;;;;;;23.48;13.70;;;7.00;99.90;;;;;;5105061;28;20201;-80
2021/12/26 07:12:27;;;;;;;18.85;12.10;;;7.00;99.90;;;;;;5110939;28;20212;-79
2021/12/26 07:14:54;;;;;;;23.48;13.52;;;6.70;99.90;;;;;;5106926;28;20254;-80
2021/12/26 07:17:22;;;;;;;24.15;13.30;;;7.00;99.90;;;;;;5108570;28;20240;-80
2021/12/26 07:19:49;;;;;;;23.60;15.10;;;6.80;99.90;;;;;;5103074;28;20236;-80
2021/12/26 07:22:16;;;;;;;32.70;14.50;;;6.70;99.90;;;;;;5098007;28;20268;-81
2021/12/26 07:24:44;;;;;;;20.52;13.25;;;6.80;99.90;;;;;;5103475;28;20205;-79
2021/12/26 07:27:11;;;;;;;23.45;14.15;;;6.80;99.90;;;;;;5108197;28;20225;-80
2021/12/26 07:29:38;;;;;;;23.15;13.65;;;6.70;99.90;;;;;;5098437;28;20208;-80
2021/12/26 07:32:06;;;;;;;22.20;14.05;;;6.90;99.90;;;;;;5097479;28;20589;-80
2021/12/26 07:34:34;;;;;;;26.00;14.00;;;6.80;99.90;;;;;;5097729;28;20580;-81
2021/12/26 07:37:02;;;;;;;21.60;13.50;;;6.60;99.90;;;;;;5097450;28;20297;-80
2021/12/26 07:39:29;;;;;;;24.75;13.45;;;6.80;99.90;;;;;;5097315;28;20296;-80
2021/12/26 07:41:55;;;;;;;21.67;13.23;;;6.80;99.90;;;;;;5097829;28;20212;-80
2021/12/26 07:44:23;;;;;;;21.33;14.15;;;6.90;99.90;;;;;;5098093;28;20231;-79
2021/12/26 07:46:50;;;;;;;24.73;14.77;;;7.00;99.90;;;;;;5099415;28;20324;-80
2021/12/26 07:49:17;;;;;;;23.95;14.93;;;6.60;99.90;;;;;;5096971;28;20205;-81
2021/12/26 07:51:47;;;;;;;25.60;15.40;;;6.60;99.90;;;;;;5097167;28;20196;-80
2021/12/26 07:54:15;;;;;;;25.83;15.75;;;6.80;99.90;;;;;;5096743;28;20262;-81
2021/12/26 07:56:42;;;;;;;23.48;15.75;;;6.70;99.90;;;;;;5102304;28;20233;-80
2021/12/26 07:59:09;;;;;;;28.50;16.23;;;6.90;99.90;;;;;;5109113;28;20209;-79
2021/12/26 08:01:36;;;;;;;30.40;18.00;;;7.00;99.90;;;;;;5101644;28;20232;-80
2021/12/26 08:04:05;;;;;;;22.58;15.50;;;7.10;99.90;;;;;;5100354;28;20315;-80
2021/12/26 08:06:32;;;;;;;23.35;14.82;;;7.20;99.90;;;;;;5097271;28;20572;-80
2021/12/26 08:09:01;;;;;;;22.52;14.32;;;7.10;99.90;;;;;;5096708;28;20281;-80
2021/12/26 08:11:27;;;;;;;23.73;15.20;;;7.00;99.90;;;;;;5100668;28;20240;-80
2021/12/26 08:13:54;;;;;;;24.17;13.90;;;7.00;99.90;;;;;;5103146;28;20213;-80
2021/12/26 08:16:21;;;;;;;25.40;15.65;;;6.90;99.90;;;;;;5098597;28;20650;-80
2021/12/26 08:18:48;;;;;;;24.73;14.70;;;7.30;99.90;;;;;;5099064;28;20292;-80
2021/12/26 08:21:15;;;;;;;22.23;14.30;;;7.00;99.90;;;;;;5104855;28;20217;-80
2021/12/26 08:23:42;;;;;;;22.83;13.63;;;7.10;99.90;;;;;;5108822;28;20322;-80
2021/12/26 08:26:10;;;;;;;23.88;14.43;;;7.30;99.90;;;;;;5109345;28;20211;-79
2021/12/26 08:28:37;;;;;;;23.25;14.73;;;7.20;99.90;;;;;;5108888;28;20327;-80
2021/12/26 08:31:04;;;;;;;22.63;14.50;;;7.20;99.90;;;;;;5103188;28;20274;-80
2021/12/26 08:33:31;;;;;;;26.98;14.95;;;7.20;99.90;;;;;;5096965;28;20219;-79
2021/12/26 08:35:58;;;;;;;25.58;15.73;;;7.50;99.90;;;;;;5099793;28;20216;-80
2021/12/26 08:38:25;;;;;;;29.13;17.05;;;7.40;99.90;;;;;;5108208;28;20233;-79
2021/12/26 08:40:54;;;;;;;21.98;14.00;;;7.50;99.90;;;;;;5109007;28;20256;-79
2021/12/26 08:43:23;;;;;;;25.17;14.82;;;7.50;99.90;;;;;;5104760;28;20210;-79
2021/12/26 08:45:50;;;;;;;25.63;15.48;;;7.50;99.90;;;;;;5097013;28;20216;-80
2021/12/26 08:48:17;;;;;;;28.30;15.70;;;7.40;99.90;;;;;;5096078;28;20271;-80
2021/12/26 08:50:45;;;;;;;27.00;14.65;;;7.40;99.90;;;;;;5096462;28;20205;-80
2021/12/26 08:53:12;;;;;;;23.80;16.02;;;7.30;99.90;;;;;;5095596;28;20210;-80
2021/12/26 08:55:57;;;;;;;25.63;15.52;;;7.40;99.90;;;;;;5096661;28;20209;-80
2021/12/26 08:58:26;;;;;;;24.73;16.65;;;7.30;99.90;;;;;;5096274;28;20228;-80
2021/12/26 09:00:53;;;;;;;25.85;15.52;;;7.40;99.90;;;;;;5097731;28;20232;-80
2021/12/26 09:03:20;;;;;;;26.45;16.80;;;7.20;99.90;;;;;;5105437;28;20375;-80
2021/12/26 09:05:47;;;;;;;24.00;16.08;;;7.30;99.90;;;;;;5096236;28;20580;-80
2021/12/26 09:08:13;;;;;;;23.60;15.80;;;7.30;99.90;;;;;;5095814;28;20222;-80
2021/12/26 09:10:41;;;;;;;24.05;15.77;;;7.20;99.90;;;;;;5097580;28;20514;-82
2021/12/26 09:13:10;;;;;;;23.80;15.27;;;7.40;99.90;;;;;;5100842;28;20206;-81
2021/12/26 09:15:38;;;;;;;22.63;15.25;;;7.60;99.90;;;;;;5101428;28;20205;-80
2021/12/26 09:18:05;;;;;;;22.35;14.98;;;7.70;99.90;;;;;;5100769;28;20232;-80
2021/12/26 09:20:32;;;;;;;22.17;14.45;;;7.60;99.90;;;;;;5100060;28;20226;-80
2021/12/26 09:22:59;;;;;;;24.17;14.68;;;7.40;99.90;;;;;;5099142;28;20541;-79
2021/12/26 09:25:26;;;;;;;23.02;14.20;;;7.50;99.90;;;;;;5102020;28;20205;-79
2021/12/26 09:27:54;;;;;;;20.85;14.07;;;7.10;99.90;;;;;;5108897;28;20255;-80
2021/12/26 09:30:21;;;;;;;21.45;13.45;;;7.40;99.90;;;;;;5100838;28;20206;-81
2021/12/26 09:32:50;;;;;;;22.27;13.77;;;7.50;99.90;;;;;;5100838;28;20224;-82
2021/12/26 09:35:18;;;;;;;22.27;14.18;;;7.60;99.90;;;;;;5099992;28;20300;-81
2021/12/26 09:37:46;;;;;;;26.75;16.90;;;7.50;99.90;;;;;;5100341;28;20225;-81
2021/12/26 09:40:14;;;;;;;24.05;15.75;;;7.60;99.90;;;;;;5100254;28;20210;-82
2021/12/26 09:42:41;;;;;;;24.35;15.63;;;7.70;99.90;;;;;;5100139;28;20210;-82
2021/12/26 09:45:09;;;;;;;27.05;15.20;;;7.80;99.90;;;;;;5102021;28;20215;-82
2021/12/26 09:47:36;;;;;;;23.58;14.70;;;7.50;99.90;;;;;;5100153;28;20222;-81
2021/12/26 09:50:05;;;;;;;24.75;15.75;;;7.90;99.90;;;;;;5099979;28;20211;-81
2021/12/26 09:52:32;;;;;;;22.80;15.30;;;8.00;99.90;;;;;;5100041;28;20205;-81
2021/12/26 09:55:00;;;;;;;23.42;15.20;;;7.90;99.90;;;;;;5101859;28;20269;-81
2021/12/26 09:57:28;;;;;;;24.27;16.25;;;8.00;99.90;;;;;;5106484;28;20246;-81
2021/12/26 09:59:55;;;;;;;22.70;14.45;;;7.90;99.90;;;;;;5099658;28;20669;-81
2021/12/26 10:02:22;;;;;;;25.70;15.18;;;8.10;99.90;;;;;;5103648;28;20227;-81
2021/12/26 10:04:51;;;;;;;22.70;15.98;;;8.20;99.90;;;;;;5115941;28;20221;-81
2021/12/26 10:07:21;;;;;;;22.17;15.00;;;8.20;99.90;;;;;;5107944;28;20676;-81
2021/12/26 10:09:50;;;;;;;23.58;16.42;;;8.30;99.90;;;;;;5111151;28;20184;-81
2021/12/26 10:12:19;;;;;;;23.20;14.65;;;8.40;99.90;;;;;;5102072;28;20672;-81
2021/12/26 10:14:49;;;;;;;20.00;14.10;;;8.30;99.90;;;;;;5099488;28;20210;-81
2021/12/26 10:17:19;;;;;;;20.70;14.02;;;8.40;99.90;;;;;;5098934;28;20246;-81
2021/12/26 10:19:48;;;;;;;18.70;12.60;;;8.50;99.90;;;;;;5099330;28;20194;-81
2021/12/26 10:22:17;;;;;;;23.15;14.77;;;8.40;99.90;;;;;;5098513;28;20235;-80
2021/12/26 10:24:48;;;;;;;23.38;15.30;;;8.50;99.90;;;;;;5098826;28;20257;-80
2021/12/26 10:27:17;;;;;;;23.70;15.80;;;8.30;99.90;;;;;;5098899;28;20242;-81
2021/12/26 10:29:44;;;;;;;26.95;16.92;;;8.20;99.90;;;;;;5097917;28;20206;-81
2021/12/26 10:32:14;;;;;;;26.77;16.13;;;8.30;99.90;;;;;;5097856;28;20206;-80
2021/12/26 10:34:44;;;;;;;25.55;16.35;;;8.50;99.90;;;;;;5098928;28;20257;-80
2021/12/26 10:37:14;;;;;;;26.33;16.08;;;8.40;99.90;;;;;;5098581;28;20269;-80
2021/12/26 10:39:45;;;;;;;21.98;15.13;;;8.10;99.90;;;;;;5099440;28;20304;-80
2021/12/26 10:42:16;;;;;;;21.75;14.80;;;8.40;99.90;;;;;;5100335;28;20587;-81
2021/12/26 10:44:46;;;;;;;23.90;14.93;;;8.60;99.90;;;;;;5098064;28;20187;-81
2021/12/26 10:47:16;;;;;;;24.23;15.90;;;8.60;99.90;;;;;;5098204;28;20230;-80
2021/12/26 10:49:51;;;;;;;23.30;13.57;;;8.60;99.90;;;;;;5098438;28;20240;-81
2021/12/26 10:52:24;;;;;;;24.13;14.40;;;8.60;99.90;;;;;;5098032;28;20276;-80
2021/12/26 10:54:55;;;;;;;24.17;14.70;;;8.70;99.90;;;;;;5097961;28;20191;-81
2021/12/26 10:57:28;;;;;;;18.67;12.65;;;8.40;99.90;;;;;;5097840;28;20227;-79
2021/12/26 11:00:16;;;;;;;21.42;14.18;;;8.40;99.90;;;;;;5104192;28;20269;-81
2021/12/26 11:02:45;;;;;;;19.40;12.70;;;8.50;99.90;;;;;;5100384;28;20230;-81
2021/12/26 11:05:15;;;;;;;22.27;13.52;;;8.70;99.90;;;;;;5098600;28;20216;-81
2021/12/26 11:07:48;;;;;;;21.83;14.25;;;8.90;99.90;;;;;;5098353;28;20268;-80
2021/12/26 11:10:20;;;;;;;20.90;14.43;;;8.80;99.90;;;;;;5098549;28;20273;-81
2021/12/26 11:12:50;;;;;;;19.63;13.45;;;8.70;99.90;;;;;;5097846;28;20191;-80
2021/12/26 11:15:18;;;;;;;19.85;13.82;;;8.90;99.90;;;;;;5098447;28;20195;-81
2021/12/26 14:05:29;;;;;;;12.37;8.63;;;10.50;99.90;;;;;;4995655;28;20971;-88
2021/12/26 14:15:23;;;;;;;11.70;8.67;;;10.40;99.90;;;;;;4978017;28;20500;-90
2021/12/26 14:28:53;;;;;;;10.73;8.70;;;10.40;99.90;;;;;;5082122;28;20479;-89
2021/12/26 14:31:56;;;;;;;12.13;9.07;;;10.30;99.90;;;;;;5086310;28;20955;-89
2021/12/26 15:17:17;;;;;;;14.10;11.10;;;9.60;99.90;;;;;;5029584;28;20511;-89
2021/12/26 17:05:58;;;;;;;11.68;8.13;;;9.50;99.90;;;;;;5043890;28;20444;-89
2021/12/26 17:19:02;;;;;;;11.35;8.57;;;9.30;99.90;;;;;;5299043;22;20495;-80
2021/12/26 17:21:29;;;;;;;13.90;9.27;;;9.40;99.90;;;;;;5055944;28;20228;-80
2021/12/26 17:23:57;;;;;;;12.25;9.00;;;9.50;99.90;;;;;;5057563;28;20469;-80
2021/12/26 17:26:24;;;;;;;13.57;8.60;;;9.60;99.90;;;;;;5056985;28;20216;-81
2021/12/26 17:28:51;;;;;;;11.17;8.90;;;9.80;99.90;;;;;;5056733;28;20229;-80
2021/12/26 17:31:18;;;;;;;12.77;9.60;;;9.70;99.90;;;;;;5056142;28;20459;-80
2021/12/26 17:33:46;;;;;;;13.40;9.40;;;9.60;99.90;;;;;;5058206;28;20208;-81
2021/12/26 17:36:14;;;;;;;13.90;10.02;;;9.50;99.90;;;;;;5060023;28;20519;-80
2021/12/26 17:38:42;;;;;;;13.50;8.30;;;9.60;99.90;;;;;;5059758;28;20267;-81
2021/12/26 17:41:09;;;;;;;11.47;8.90;;;9.50;99.90;;;;;;5059534;28;20839;-79
2021/12/26 17:43:37;;;;;;;16.02;8.60;;;9.40;99.90;;;;;;5059509;28;20490;-80
2021/12/26 17:46:04;;;;;;;12.60;8.73;;;9.50;99.90;;;;;;5058910;28;20277;-81
2021/12/26 17:48:31;;;;;;;13.13;9.68;;;9.50;99.90;;;;;;5059264;28;20540;-80
2021/12/26 17:51:02;;;;;;;11.93;9.85;;;9.60;99.90;;;;;;5059794;28;20209;-81
2021/12/26 17:53:30;;;;;;;11.55;8.60;;;9.50;99.90;;;;;;5059266;28;20188;-81
2021/12/26 17:55:57;;;;;;;14.30;9.63;;;9.40;99.90;;;;;;5059909;28;20290;-81
2021/12/26 17:58:25;;;;;;;13.70;9.38;;;9.50;99.90;;;;;;5058668;28;20238;-81
2021/12/26 18:00:52;;;;;;;13.37;10.10;;;9.50;99.90;;;;;;5059507;28;20209;-81
2021/12/26 18:03:19;;;;;;;13.55;10.05;;;9.50;99.90;;;;;;5060045;28;20630;-81
2021/12/26 18:05:46;;;;;;;14.90;11.40;;;9.40;99.90;;;;;;5073492;28;20219;-80
2021/12/26 18:08:13;;;;;;;13.60;10.13;;;9.40;99.90;;;;;;5065121;28;20275;-80
2021/12/26 18:10:41;;;;;;;18.40;10.90;;;9.30;99.90;;;;;;5070149;28;20451;-81
2021/12/26 18:13:09;;;;;;;13.65;9.18;;;9.20;99.90;;;;;;5063703;28;20243;-80
2021/12/26 18:15:36;;;;;;;13.48;9.68;;;9.20;99.90;;;;;;5061964;28;20600;-80
2021/12/26 18:18:03;;;;;;;12.07;9.35;;;9.20;99.90;;;;;;5073392;28;20304;-80
2021/12/26 18:20:32;;;;;;;11.70;9.05;;;9.30;99.90;;;;;;5062013;28;20219;-81
2021/12/26 18:22:59;;;;;;;12.35;9.50;;;9.30;99.90;;;;;;5059193;28;20239;-81
2021/12/26 18:25:26;;;;;;;13.85;9.02;;;9.20;99.90;;;;;;5058495;28;20310;-81
2021/12/26 18:27:55;;;;;;;14.10;10.07;;;9.20;99.90;;;;;;5058579;28;20718;-81
2021/12/26 18:30:23;;;;;;;14.13;9.35;;;9.30;99.90;;;;;;5058609;28;20461;-82
2021/12/26 18:32:52;;;;;;;16.10;11.20;;;9.40;99.90;;;;;;5059731;28;20204;-81
2021/12/26 18:35:20;;;;;;;14.95;10.27;;;9.30;99.90;;;;;;5059412;28;20275;-81
2021/12/26 18:37:48;;;;;;;12.13;9.52;;;9.30;99.90;;;;;;5059517;28;20280;-81
2021/12/26 18:40:21;;;;;;;13.00;10.20;;;9.40;99.90;;;;;;5060817;28;20303;-81
2021/12/26 18:42:48;;;;;;;12.43;10.63;;;9.40;99.90;;;;;;5066855;28;20475;-81
2021/12/26 18:45:17;;;;;;;12.85;9.43;;;9.40;99.90;;;;;;5059969;28;20715;-81
2021/12/26 18:47:44;;;;;;;12.40;9.45;;;9.40;99.90;;;;;;5059080;28;20602;-81
2021/12/26 18:50:12;;;;;;;11.33;9.00;;;9.30;99.90;;;;;;5058768;28;20583;-80
2021/12/26 18:52:39;;;;;;;11.50;9.35;;;9.30;99.90;;;;;;5058416;28;20446;-82
2021/12/26 18:55:07;;;;;;;12.52;9.65;;;9.30;99.90;;;;;;5058953;28;20212;-80
2021/12/26 18:57:34;;;;;;;13.15;10.07;;;9.30;99.90;;;;;;5058941;28;20298;-80
2021/12/26 19:00:02;;;;;;;11.70;8.90;;;9.20;99.90;;;;;;5060372;28;20680;-80
2021/12/26 19:02:30;;;;;;;13.05;9.57;;;9.20;99.90;;;;;;5057633;28;20228;-79
2021/12/26 19:04:57;;;;;;;15.20;11.10;;;9.20;99.90;;;;;;5057516;28;20219;-81
2021/12/26 19:07:24;;;;;;;14.60;10.43;;;9.20;99.90;;;;;;5058170;28;20217;-81
2021/12/26 19:09:51;;;;;;;13.90;10.10;;;9.30;99.90;;;;;;5059130;28;20455;-80
2021/12/26 19:12:18;;;;;;;12.38;9.48;;;9.40;99.90;;;;;;5059594;28;20459;-80
2021/12/26 19:14:46;;;;;;;12.50;9.75;;;9.40;99.90;;;;;;5057659;28;20283;-79
2021/12/26 19:17:13;;;;;;;13.52;10.35;;;9.20;99.90;;;;;;5057077;28;20231;-80
2021/12/26 19:19:41;;;;;;;13.10;9.40;;;9.20;99.90;;;;;;5060246;28;20214;-80
2021/12/26 19:22:08;;;;;;;13.30;10.00;;;9.40;99.90;;;;;;5062252;28;20452;-80
2021/12/26 19:24:35;;;;;;;13.40;9.70;;;9.40;99.90;;;;;;5059610;28;20673;-80
2021/12/26 19:27:02;;;;;;;16.33;11.30;;;9.40;99.90;;;;;;5059374;28;20209;-80
2021/12/26 19:29:35;;;;;;;12.00;9.02;;;9.40;99.90;;;;;;5058078;28;20847;-80
2021/12/26 19:32:04;;;;;;;13.25;10.15;;;9.30;99.90;;;;;;5057531;28;20197;-80
2021/12/26 19:34:35;;;;;;;12.85;10.07;;;9.20;99.90;;;;;;5057061;28;20544;-80
2021/12/26 19:37:04;;;;;;;13.67;10.43;;;9.30;99.90;;;;;;5058346;28;20228;-81
2021/12/26 19:39:32;;;;;;;12.25;8.40;;;9.30;99.90;;;;;;5057844;28;20479;-80
2021/12/26 19:42:00;;;;;;;12.00;9.50;;;9.40;99.90;;;;;;5057164;28;20209;-80
2021/12/26 19:44:27;;;;;;;12.95;9.48;;;9.50;99.90;;;;;;5058127;28;20496;-80
2021/12/26 19:46:55;;;;;;;15.90;10.43;;;9.50;99.90;;;;;;5063376;28;20247;-80
2021/12/26 19:49:22;;;;;;;16.73;11.50;;;9.30;99.90;;;;;;5071728;28;20287;-80
2021/12/26 19:51:49;;;;;;;13.97;9.93;;;9.40;99.90;;;;;;5064304;28;20455;-80
2021/12/26 19:54:17;;;;;;;11.82;10.07;;;9.50;99.90;;;;;;5065668;28;20466;-80
2021/12/26 19:56:45;;;;;;;14.07;9.53;;;9.50;99.90;;;;;;5068450;28;20299;-80
2021/12/26 19:59:13;;;;;;;16.98;10.55;;;9.40;99.90;;;;;;5063753;28;20476;-81
2021/12/26 20:01:39;;;;;;;13.10;10.80;;;9.50;99.90;;;;;;5057764;28;20215;-81
2021/12/26 20:04:08;;;;;;;17.20;11.80;;;9.50;99.90;;;;;;5058307;28;20232;-80
2021/12/26 20:06:35;;;;;;;16.10;10.75;;;9.50;99.90;;;;;;5060501;28;20299;-81
2021/12/26 20:09:01;;;;;;;15.77;10.57;;;9.60;99.90;;;;;;5058512;28;20316;-82
2021/12/26 20:11:30;;;;;;;11.93;9.07;;;9.70;99.90;;;;;;5057614;28;20463;-82
2021/12/26 20:13:57;;;;;;;13.57;9.90;;;9.70;99.90;;;;;;5057084;28;20820;-81
2021/12/26 20:16:24;;;;;;;12.02;9.73;;;9.80;99.90;;;;;;5056867;28;20447;-80
2021/12/26 20:18:51;;;;;;;13.20;10.27;;;9.80;99.90;;;;;;5059404;28;20620;-80
2021/12/26 20:21:19;;;;;;;14.60;10.80;;;9.70;99.90;;;;;;5060321;28;20451;-80
2021/12/26 20:23:49;;;;;;;14.45;11.10;;;9.60;99.90;;;;;;5058045;28;20489;-80
2021/12/26 20:26:18;;;;;;;19.30;10.73;;;9.40;99.90;;;;;;5056271;28;20204;-80
2021/12/26 20:28:47;;;;;;;16.20;12.30;;;9.40;99.90;;;;;;5057819;28;20542;-81
2021/12/26 20:31:14;;;;;;;18.58;11.40;;;9.40;99.90;;;;;;5058078;28;20516;-80
2021/12/26 20:33:41;;;;;;;14.38;10.02;;;9.20;99.90;;;;;;5056709;28;20200;-81
2021/12/26 20:36:09;;;;;;;15.07;10.68;;;9.20;99.90;;;;;;5056864;28;20216;-80
2021/12/26 20:38:38;;;;;;;14.80;11.23;;;9.10;99.90;;;;;;5058097;28;20224;-81
2021/12/26 20:41:06;;;;;;;15.88;12.15;;;9.20;99.90;;;;;;5057454;28;20213;-80
2021/12/26 20:43:33;;;;;;;14.40;12.05;;;9.20;99.90;;;;;;5057134;28;20279;-80
2021/12/26 20:46:01;;;;;;;15.50;11.53;;;9.20;99.90;;;;;;5057033;28;20696;-81
2021/12/26 20:48:29;;;;;;;18.33;12.45;;;9.20;99.90;;;;;;5056905;28;20482;-81
2021/12/26 20:50:56;;;;;;;15.27;11.95;;;9.20;99.90;;;;;;5061132;28;20208;-81
2021/12/26 20:53:23;;;;;;;15.57;11.40;;;9.20;99.90;;;;;;5057077;28;20701;-81
2021/12/26 20:55:50;;;;;;;15.52;11.88;;;9.20;99.90;;;;;;5057898;28;20234;-81
2021/12/26 20:58:17;;;;;;;16.50;11.30;;;9.20;99.90;;;;;;5067051;28;20239;-80
2021/12/26 21:00:48;;;;;;;15.07;11.05;;;9.20;99.90;;;;;;5067464;28;20227;-80
2021/12/26 21:03:16;;;;;;;14.00;10.75;;;9.20;99.90;;;;;;5057882;28;20211;-81
2021/12/26 21:05:44;;;;;;;14.77;11.10;;;9.30;99.90;;;;;;5056698;28;20204;-81
2021/12/26 21:08:11;;;;;;;18.42;12.00;;;9.20;99.90;;;;;;5060041;28;20697;-81
2021/12/26 21:10:38;;;;;;;15.15;11.25;;;9.30;99.90;;;;;;5062127;28;20212;-80
2021/12/26 21:13:05;;;;;;;14.57;11.35;;;9.20;99.90;;;;;;5068483;28;20239;-80
2021/12/26 21:15:32;;;;;;;16.33;11.55;;;9.30;99.90;;;;;;5062897;28;20244;-80
2021/12/26 21:17:59;;;;;;;15.02;10.82;;;9.20;99.90;;;;;;5072975;28;20307;-80
2021/12/26 21:20:27;;;;;;;14.27;11.30;;;9.20;99.90;;;;;;5071229;28;20290;-81
2021/12/26 21:22:54;;;;;;;12.63;10.20;;;9.30;99.90;;;;;;5062864;28;20537;-80
2021/12/26 21:25:21;;;;;;;15.63;12.03;;;9.30;99.90;;;;;;5062166;28;20647;-80
2021/12/26 21:27:48;;;;;;;12.80;10.60;;;9.40;99.90;;;;;;5060928;28;20494;-80
2021/12/26 21:30:16;;;;;;;15.18;11.18;;;9.40;99.90;;;;;;5060231;28;20443;-80
2021/12/26 21:32:43;;;;;;;13.95;11.27;;;9.40;99.90;;;;;;5064787;28;20730;-79
2021/12/26 21:35:10;;;;;;;15.23;11.60;;;9.30;99.90;;;;;;5062729;28;20243;-81
2021/12/26 21:37:39;;;;;;;14.50;10.82;;;9.30;99.90;;;;;;5060816;28;20960;-80
2021/12/26 21:40:08;;;;;;;16.88;12.23;;;9.30;99.90;;;;;;5060268;28;20212;-80
2021/12/26 21:42:35;;;;;;;14.43;11.17;;;9.30;99.90;;;;;;5060323;28;20214;-80
2021/12/26 21:45:04;;;;;;;16.35;11.32;;;9.40;99.90;;;;;;5059237;28;20488;-80
2021/12/26 21:47:33;;;;;;;15.38;11.70;;;9.50;99.90;;;;;;5059099;28;20255;-80
2021/12/26 21:50:00;;;;;;;14.23;10.35;;;9.50;99.90;;;;;;5061453;28;20228;-80
2021/12/26 21:52:27;;;;;;;13.32;10.77;;;9.60;99.90;;;;;;5061125;28;20246;-80
2021/12/26 21:54:55;;;;;;;15.63;9.65;;;9.50;99.90;;;;;;5060087;28;20200;-80
2021/12/26 21:57:22;;;;;;;10.83;9.43;;;9.30;99.90;;;;;;5060294;28;20242;-80
2021/12/26 21:59:49;;;;;;;11.00;8.80;;;9.40;99.90;;;;;;5066656;28;20445;-80
2021/12/26 22:02:16;;;;;;;14.13;9.70;;;9.40;99.90;;;;;;5064956;28;20242;-80
2021/12/26 22:04:44;;;;;;;11.55;9.32;;;9.50;99.90;;;;;;5060957;28;20481;-81
2021/12/26 22:07:12;;;;;;;16.23;9.75;;;9.50;99.90;;;;;;5072914;28;20272;-79
2021/12/26 22:09:39;;;;;;;12.07;9.45;;;9.40;99.90;;;;;;5073780;28;20267;-80
2021/12/26 22:12:10;;;;;;;12.97;9.10;;;9.40;99.90;;;;;;5073608;28;20197;-80
2021/12/26 22:14:37;;;;;;;15.98;9.65;;;9.40;99.90;;;;;;5071198;28;20506;-80
2021/12/26 22:17:04;;;;;;;13.05;9.55;;;9.40;99.90;;;;;;5065468;28;20213;-80
2021/12/26 22:19:31;;;;;;;12.07;8.65;;;9.50;99.90;;;;;;5061630;28;20319;-80
2021/12/26 22:21:58;;;;;;;11.40;9.07;;;9.50;99.90;;;;;;5059448;28;20580;-81
2021/12/26 22:24:24;;;;;;;14.25;9.75;;;9.50;99.90;;;;;;5059794;28;20235;-82
2021/12/26 22:26:51;;;;;;;15.23;8.82;;;9.50;99.90;;;;;;5064818;28;20209;-80
2021/12/26 22:29:21;;;;;;;12.55;8.32;;;9.40;99.90;;;;;;5061025;28;20232;-81
2021/12/26 22:31:47;;;;;;;14.43;8.88;;;9.50;99.90;;;;;;5060170;28;20266;-80
2021/12/26 22:34:14;;;;;;;12.32;8.93;;;9.50;99.90;;;;;;5059853;28;20213;-80
2021/12/26 22:36:41;;;;;;;14.80;9.55;;;9.40;99.90;;;;;;5060575;28;20647;-79
2021/12/26 22:39:08;;;;;;;11.23;8.80;;;9.50;99.90;;;;;;5060990;28;20243;-79
2021/12/26 22:41:35;;;;;;;11.13;8.60;;;9.50;99.90;;;;;;5063973;28;20530;-79
2021/12/26 22:44:02;;;;;;;13.63;9.13;;;9.40;99.90;;;;;;5062184;28;20220;-79
2021/12/26 22:46:30;;;;;;;11.60;8.50;;;9.40;99.90;;;;;;5060144;28;20208;-80
2021/12/26 22:48:58;;;;;;;11.68;8.65;;;9.40;99.90;;;;;;5059412;28;20318;-81
2021/12/26 22:51:25;;;;;;;10.18;7.70;;;9.30;99.90;;;;;;5058770;28;20324;-80
2021/12/26 22:53:52;;;;;;;11.65;8.23;;;9.40;99.90;;;;;;5058286;28;20314;-80
2021/12/26 22:56:19;;;;;;;10.55;8.13;;;9.40;99.90;;;;;;5057772;28;20219;-80
2021/12/26 22:58:46;;;;;;;9.87;7.87;;;9.40;99.90;;;;;;5057513;28;20232;-80
2021/12/26 23:01:12;;;;;;;10.98;8.65;;;9.40;99.90;;;;;;5058539;28;20499;-80
2021/12/26 23:03:41;;;;;;;11.48;8.40;;;9.50;99.90;;;;;;5057657;28;20215;-80
2021/12/26 23:06:07;;;;;;;10.93;8.30;;;9.50;99.90;;;;;;5058605;28;20210;-80
2021/12/26 23:08:34;;;;;;;11.23;8.18;;;9.40;99.90;;;;;;5063840;28;20318;-80
2021/12/26 23:11:01;;;;;;;11.35;8.02;;;9.30;99.90;;;;;;5059447;28;20302;-81
2021/12/26 23:13:29;;;;;;;12.20;9.00;;;9.40;99.90;;;;;;5058992;28;20241;-80
2021/12/26 23:15:56;;;;;;;12.20;9.13;;;9.30;99.90;;;;;;5058526;28;20299;-80
